Terminal Aerodrome Forecast
Issued by NWS

Home | Current Version | Previous Version | Text Only | Print | Product List | Glossary On
Versions: 1 2 3 4 5 6 7 8 9 10 11 12 13 14 15 16 17 18 19 20 21 22 23
626
FTUS45 KVEF 221725
TAFBIH
TAF
KBIH 221725Z 2218/2318 16030G40KT 1SM -SN BR OVC010
      TEMPO 2218/2222 1/2SM SN FG VV008
     FM230100 17018G28KT 2SM -SN BR OVC010
     FM231200 33007KT P6SM VCSH SCT010 BKN030=

USA.gov is the U.S. government's official web portal to all federal, state and local government web resources and services.